createdAt,value
2022-10-16T00:00:12.070Z,9.711733
2022-10-16T00:01:12.122Z,9.711501
2022-10-16T00:02:12.097Z,9.711438
2022-10-16T00:03:12.055Z,9.711471
2022-10-16T00:04:12.030Z,9.711452
2022-10-16T00:05:12.042Z,9.711511
2022-10-16T00:06:12.020Z,9.711499
2022-10-16T00:07:12.673Z,9.711459
2022-10-16T00:08:12.025Z,9.711460
2022-10-16T00:09:11.994Z,9.711407
2022-10-16T00:10:11.997Z,9.711490
2022-10-16T00:11:11.981Z,9.711600
2022-10-16T00:12:12.604Z,9.711552
2022-10-16T00:13:11.966Z,9.711491
2022-10-16T00:14:11.961Z,9.711549
2022-10-16T00:15:11.945Z,9.711487
2022-10-16T00:16:12.012Z,9.711528
2022-10-16T00:17:11.934Z,9.711608
2022-10-16T00:18:11.940Z,9.711530
2022-10-16T00:19:11.926Z,9.711481
2022-10-16T00:20:11.937Z,9.711555
2022-10-16T00:21:11.901Z,9.711587
2022-10-16T00:22:11.925Z,9.711624
2022-10-16T00:23:11.893Z,9.711679
2022-10-16T00:24:11.893Z,9.711714
2022-10-16T00:25:11.872Z,9.711716
2022-10-16T00:26:12.659Z,9.711661
2022-10-16T00:27:11.859Z,9.711724
2022-10-16T00:28:11.848Z,9.711728
2022-10-16T00:48:21.321Z,9.711820
2022-10-16T00:49:21.324Z,9.711655
2022-10-16T00:50:21.318Z,9.711705
2022-10-16T00:51:21.305Z,9.711570
2022-10-16T00:52:21.291Z,9.711561
2022-10-16T00:53:21.283Z,9.711561
2022-10-16T00:54:21.277Z,9.711561
2022-10-16T00:55:21.275Z,9.711561
2022-10-16T00:56:21.256Z,9.711561
2022-10-16T00:57:21.251Z,9.711498
2022-10-16T00:58:22.237Z,9.711498
2022-10-16T00:59:21.239Z,9.711498
2022-10-16T01:00:21.239Z,9.711498
2022-10-16T01:01:21.320Z,9.711498
2022-10-16T01:02:21.208Z,9.711498
2022-10-16T01:03:21.196Z,9.711498
2022-10-16T01:04:21.269Z,9.711498
2022-10-16T01:05:21.178Z,9.711821
2022-10-16T01:06:21.277Z,9.711821
2022-10-16T01:07:21.168Z,9.711821
2022-10-16T01:08:21.155Z,9.711821
2022-10-16T01:09:21.145Z,9.711821
2022-10-16T01:10:21.153Z,9.711821
2022-10-16T01:11:21.161Z,9.711821
2022-10-16T01:12:21.127Z,9.711715
2022-10-16T01:13:21.117Z,9.711649
2022-10-16T01:14:21.114Z,9.711710
2022-10-16T01:15:22.727Z,9.711710
2022-10-16T01:16:21.090Z,9.711379
2022-10-16T01:17:21.099Z,9.711544
2022-10-16T01:18:21.074Z,9.711663
2022-10-16T01:19:21.079Z,9.711780
2022-10-16T01:20:21.062Z,9.711839
2022-10-16T01:21:21.052Z,9.711953
2022-10-16T01:22:21.073Z,9.711945
2022-10-16T01:23:21.035Z,9.711945
2022-10-16T01:24:21.032Z,9.711945
2022-10-16T01:25:21.020Z,9.711945
2022-10-16T01:26:21.005Z,9.711945
2022-10-16T01:27:21.011Z,9.711945
2022-10-16T01:28:21.020Z,9.711945
2022-10-16T01:29:20.992Z,9.711746
2022-10-16T01:30:21.000Z,9.711844
2022-10-16T01:31:20.970Z,9.711823
2022-10-16T01:32:20.953Z,9.711823
2022-10-16T01:33:20.949Z,9.711770
2022-10-16T01:34:21.261Z,9.711515
2022-10-16T01:35:20.948Z,9.711628
2022-10-16T01:36:21.737Z,9.711686
2022-10-16T01:37:21.921Z,9.711562
2022-10-16T01:38:20.988Z,9.711526
2022-10-16T01:39:20.905Z,9.711518
2022-10-16T01:40:20.888Z,9.711500
2022-10-16T01:41:20.878Z,9.711497
2022-10-16T01:42:20.871Z,9.711596
2022-10-16T01:43:20.861Z,9.711525
2022-10-16T01:44:20.863Z,9.711532
2022-10-16T01:45:20.856Z,9.711597
2022-10-16T01:46:20.841Z,9.711656
2022-10-16T01:47:21.262Z,9.711612
2022-10-16T01:48:20.820Z,9.711632
2022-10-16T01:49:20.819Z,9.711596
2022-10-16T01:50:20.806Z,9.711674
2022-10-16T01:51:20.815Z,9.711885
2022-10-16T01:52:20.796Z,9.711852
2022-10-16T01:53:20.786Z,9.711834
2022-10-16T01:54:20.779Z,9.711806
2022-10-16T01:55:20.767Z,9.711745
2022-10-16T01:56:20.785Z,9.711448
2022-10-16T01:57:20.780Z,9.711280
2022-10-16T01:58:20.746Z,9.711406
2022-10-16T01:59:20.731Z,9.711516
2022-10-16T02:00:20.729Z,9.711620
2022-10-16T02:01:20.779Z,9.711713
2022-10-16T02:02:20.718Z,9.711724
2022-10-16T02:03:20.711Z,9.711577
2022-10-16T02:04:20.690Z,9.711496
2022-10-16T02:05:20.686Z,9.711550
2022-10-16T02:06:20.720Z,9.711677
2022-10-16T02:07:20.693Z,9.711664
2022-10-16T02:08:20.663Z,9.711723
2022-10-16T02:09:20.661Z,9.711625
2022-10-16T02:10:22.191Z,9.711688
2022-10-16T02:11:23.292Z,9.711604
2022-10-16T02:12:20.766Z,9.711712
2022-10-16T02:13:20.632Z,9.711706
2022-10-16T02:14:20.618Z,9.711673
2022-10-16T02:15:20.619Z,9.711649
2022-10-16T02:16:20.601Z,9.711698
2022-10-16T02:17:20.605Z,9.711681
2022-10-16T02:18:20.593Z,9.711662
2022-10-16T02:19:20.586Z,9.711677
2022-10-16T02:20:20.569Z,9.711742
2022-10-16T02:21:20.563Z,9.711688
2022-10-16T02:22:20.677Z,9.711670
2022-10-16T02:23:20.541Z,9.711686
2022-10-16T02:24:20.532Z,9.711579
2022-10-16T02:25:20.538Z,9.711599
2022-10-16T02:26:20.523Z,9.711661
2022-10-16T02:27:20.513Z,9.711657
2022-10-16T02:28:20.542Z,9.711692
2022-10-16T02:29:20.499Z,9.711608
2022-10-16T02:30:20.485Z,9.711601
2022-10-16T02:31:20.488Z,9.711681
2022-10-16T02:32:20.478Z,9.711678
2022-10-16T02:33:20.473Z,9.711653
2022-10-16T02:34:21.254Z,9.711638
2022-10-16T02:35:20.450Z,9.711684
2022-10-16T02:36:20.442Z,9.711738
2022-10-16T02:37:20.460Z,9.711698
2022-10-16T02:38:20.426Z,9.711668
2022-10-16T02:39:20.416Z,9.711645
2022-10-16T02:40:24.345Z,9.711665
2022-10-16T02:41:20.423Z,9.711694
2022-10-16T02:42:20.404Z,9.711619
2022-10-16T02:43:24.180Z,9.711594
2022-10-16T02:44:22.250Z,9.711605
2022-10-16T02:45:20.374Z,9.711603
2022-10-16T02:46:20.364Z,9.711605
2022-10-16T02:47:20.373Z,9.711590
2022-10-16T02:48:20.347Z,9.711667
2022-10-16T02:49:20.478Z,9.711626
2022-10-16T02:50:21.329Z,9.711602
2022-10-16T02:51:20.354Z,9.711499
2022-10-16T02:52:20.311Z,9.711680
2022-10-16T02:53:20.317Z,9.711657
2022-10-16T02:54:20.310Z,9.711581
2022-10-16T02:55:20.297Z,9.711666
2022-10-16T02:56:20.304Z,9.711662
2022-10-16T02:57:20.281Z,9.711633
2022-10-16T02:58:20.278Z,9.711738
2022-10-16T02:59:20.263Z,9.711758
2022-10-16T03:00:20.263Z,9.711712
2022-10-16T03:01:20.331Z,9.711714
2022-10-16T03:02:20.241Z,9.711568
2022-10-16T03:03:20.238Z,9.711613
2022-10-16T03:04:20.225Z,9.711567
2022-10-16T03:06:20.199Z,9.711480
2022-10-16T03:07:20.200Z,9.711588
2022-10-16T03:08:20.190Z,9.711605
2022-10-16T03:09:21.766Z,9.711656
2022-10-16T03:10:20.170Z,9.711633
2022-10-16T03:11:20.167Z,9.711658
2022-10-16T03:12:20.158Z,9.711603
2022-10-16T03:13:20.148Z,9.711486
2022-10-16T03:14:20.225Z,9.711531
2022-10-16T03:15:20.132Z,9.711554
2022-10-16T03:16:20.769Z,9.711553
2022-10-16T03:17:20.117Z,9.711634
2022-10-16T03:18:20.110Z,9.711653
2022-10-16T03:19:20.118Z,9.711551
2022-10-16T03:20:20.103Z,9.711498
2022-10-16T03:21:20.089Z,9.711559
2022-10-16T03:22:20.082Z,9.711624
2022-10-16T03:23:20.125Z,9.711539
2022-10-16T03:24:20.061Z,9.711393
2022-10-16T03:25:20.057Z,9.711276
2022-10-16T03:26:20.051Z,9.711233
2022-10-16T03:27:20.035Z,9.711335
2022-10-16T03:28:20.159Z,9.711328
2022-10-16T03:29:20.026Z,9.711328
2022-10-16T03:30:20.693Z,9.711440
2022-10-16T03:31:21.721Z,9.711443
2022-10-16T03:32:20.010Z,9.711519
2022-10-16T03:33:19.998Z,9.711796
2022-10-16T03:34:19.984Z,9.711685
2022-10-16T03:35:19.977Z,9.711532
2022-10-16T03:36:19.971Z,9.711552
2022-10-16T03:37:19.963Z,9.711452
2022-10-16T03:38:19.951Z,9.711226
2022-10-16T03:39:19.944Z,9.711201
2022-10-16T03:40:19.959Z,9.711334
2022-10-16T03:41:19.928Z,9.711420
2022-10-16T03:42:19.920Z,9.711872
2022-10-16T03:43:19.936Z,9.711585
2022-10-16T03:44:19.905Z,9.711706
2022-10-16T03:45:19.911Z,9.711698
2022-10-16T03:46:19.884Z,9.711671
2022-10-16T03:47:19.892Z,9.711668
2022-10-16T03:48:19.870Z,9.711675
2022-10-16T03:49:19.864Z,9.711694
2022-10-16T03:50:20.784Z,9.711640
2022-10-16T03:51:19.843Z,9.711654
2022-10-16T03:53:19.831Z,9.711675
2022-10-16T03:54:19.824Z,9.711641
2022-10-16T03:55:19.815Z,9.711654
2022-10-16T03:56:19.809Z,9.711671
2022-10-16T03:57:19.815Z,9.711634
2022-10-16T03:58:19.794Z,9.711627
2022-10-16T03:59:19.781Z,9.711651
2022-10-16T04:00:19.789Z,9.711663
2022-10-16T04:01:19.793Z,9.711652
2022-10-16T04:02:19.752Z,9.711631
2022-10-16T04:03:19.752Z,9.711636
2022-10-16T04:04:19.738Z,9.711671
2022-10-16T04:05:19.737Z,9.711631
2022-10-16T04:06:19.727Z,9.711650
2022-10-16T04:07:19.720Z,9.711720
2022-10-16T04:08:19.701Z,9.711698
2022-10-16T04:09:19.708Z,9.711722
2022-10-16T04:10:20.694Z,9.711701
2022-10-16T04:11:19.684Z,9.711672
2022-10-16T04:12:19.673Z,9.711822
2022-10-16T04:14:19.665Z,9.711882
2022-10-16T04:15:19.649Z,9.711833
2022-10-16T04:16:19.641Z,9.712006
2022-10-16T04:17:19.677Z,9.712039
2022-10-16T04:18:19.640Z,9.712008
2022-10-16T04:19:19.623Z,9.712003
2022-10-16T04:20:19.615Z,9.711961
2022-10-16T04:21:19.605Z,9.712178
2022-10-16T04:22:19.645Z,9.712188
2022-10-16T04:23:19.591Z,9.712138
2022-10-16T04:24:20.209Z,9.712098
2022-10-16T04:25:19.582Z,9.712045
2022-10-16T04:26:19.571Z,9.712130
2022-10-16T04:27:19.561Z,9.712114
2022-10-16T04:28:19.592Z,9.712285
2022-10-16T04:29:19.543Z,9.712241
2022-10-16T04:30:19.526Z,9.712348
2022-10-16T04:31:19.523Z,9.712347
2022-10-16T04:32:19.529Z,9.712189
2022-10-16T04:33:19.509Z,9.712171
2022-10-16T04:34:19.506Z,9.712141
2022-10-16T04:35:19.499Z,9.712183
2022-10-16T04:36:19.482Z,9.712087
2022-10-16T04:37:20.215Z,9.711856
2022-10-16T04:38:19.472Z,9.711670
2022-10-16T04:39:19.469Z,9.711635
2022-10-16T04:40:19.461Z,9.711620
2022-10-16T04:41:19.458Z,9.711596
2022-10-16T04:42:19.661Z,9.711562
2022-10-16T04:43:19.471Z,9.711623
2022-10-16T04:44:19.423Z,9.711601
2022-10-16T04:45:19.418Z,9.711644
2022-10-16T04:46:19.401Z,9.711598
2022-10-16T04:47:19.393Z,9.711633
2022-10-16T04:48:19.404Z,9.711637
2022-10-16T04:49:19.378Z,9.711645
2022-10-16T04:50:19.382Z,9.711653
2022-10-16T04:51:19.359Z,9.711704
2022-10-16T04:52:19.354Z,9.711622
2022-10-16T04:53:19.361Z,9.711674
2022-10-16T04:54:19.331Z,9.711656
2022-10-16T04:55:19.331Z,9.711672
2022-10-16T04:56:19.315Z,9.711678
2022-10-16T04:57:19.322Z,9.711698
2022-10-16T04:58:19.300Z,9.711672
2022-10-16T04:59:19.300Z,9.711695
2022-10-16T05:00:19.294Z,9.711706
2022-10-16T05:01:20.276Z,9.711699
2022-10-16T05:02:19.283Z,9.711686
2022-10-16T05:03:19.470Z,9.711658
2022-10-16T05:04:19.264Z,9.711613
2022-10-16T05:05:19.245Z,9.711692
2022-10-16T05:06:19.241Z,9.711700
2022-10-16T05:07:19.240Z,9.711672
2022-10-16T05:08:19.229Z,9.711745
2022-10-16T05:09:19.212Z,9.711712
2022-10-16T05:10:19.205Z,9.711683
2022-10-16T05:11:19.194Z,9.711660
2022-10-16T05:12:19.198Z,9.711703
2022-10-16T05:13:19.186Z,9.711618
2022-10-16T05:14:19.179Z,9.711741
2022-10-16T05:15:19.162Z,9.711756
2022-10-16T05:16:19.156Z,9.711762
2022-10-16T05:17:19.166Z,9.711776
2022-10-16T05:18:19.321Z,9.711774
2022-10-16T05:19:27.690Z,9.711747
2022-10-16T05:20:21.126Z,9.711751
2022-10-16T05:21:19.123Z,9.711760
2022-10-16T05:22:19.110Z,9.711807
2022-10-16T05:23:19.114Z,9.711782
2022-10-16T05:24:19.094Z,9.711781
2022-10-16T05:25:19.085Z,9.711758
2022-10-16T05:26:19.805Z,9.711755
2022-10-16T05:27:19.068Z,9.711756
2022-10-16T05:28:19.121Z,9.711714
2022-10-16T05:29:19.052Z,9.711793
2022-10-16T05:30:19.041Z,9.711793
2022-10-16T05:31:20.722Z,9.711709
2022-10-16T05:32:19.024Z,9.711834
2022-10-16T05:33:19.019Z,9.711780
2022-10-16T05:34:19.016Z,9.711677
2022-10-16T05:35:19.003Z,9.711678
2022-10-16T05:36:18.995Z,9.711693
2022-10-16T05:37:18.993Z,9.711768
2022-10-16T05:38:18.974Z,9.711715
2022-10-16T05:39:18.979Z,9.711712
2022-10-16T05:40:18.986Z,9.711680
2022-10-16T05:41:18.949Z,9.711810
2022-10-16T05:42:18.952Z,9.711708
2022-10-16T05:43:18.954Z,9.711707
2022-10-16T05:44:19.732Z,9.711658
2022-10-16T05:45:18.924Z,9.711643
2022-10-16T05:46:18.908Z,9.711630
2022-10-16T05:47:18.901Z,9.711657
2022-10-16T05:48:18.889Z,9.711669
2022-10-16T05:49:18.904Z,9.711675
2022-10-16T05:50:18.877Z,9.711738
2022-10-16T05:51:18.876Z,9.711661
2022-10-16T05:52:18.867Z,9.711608
2022-10-16T05:53:18.856Z,9.711603
2022-10-16T05:54:18.846Z,9.711621
2022-10-16T05:55:18.833Z,9.711623
2022-10-16T05:56:18.833Z,9.711600
2022-10-16T05:57:18.822Z,9.711604
2022-10-16T05:58:18.820Z,9.711651
2022-10-16T05:59:18.805Z,9.711691
2022-10-16T06:00:18.800Z,9.711654
2022-10-16T06:01:18.935Z,9.711615
2022-10-16T06:02:18.781Z,9.711664
2022-10-16T06:03:18.789Z,9.711674
2022-10-16T06:04:18.768Z,9.711612
2022-10-16T06:05:18.769Z,9.711678
2022-10-16T06:06:18.751Z,9.711699
2022-10-16T06:07:18.756Z,9.711634
2022-10-16T06:08:18.751Z,9.711539
2022-10-16T06:09:18.742Z,9.711679
2022-10-16T06:10:18.720Z,9.711451
2022-10-16T06:11:19.739Z,9.711605
2022-10-16T06:12:18.703Z,9.711735
2022-10-16T06:13:18.842Z,9.711544
2022-10-16T06:14:18.712Z,9.711654
2022-10-16T06:15:18.690Z,9.711684
2022-10-16T06:16:18.672Z,9.711689
2022-10-16T06:17:18.661Z,9.711716
2022-10-16T06:18:18.656Z,9.711662
2022-10-16T06:19:18.658Z,9.711712
2022-10-16T06:20:18.648Z,9.711721
2022-10-16T06:21:18.639Z,9.711540
2022-10-16T06:22:18.623Z,9.711475
2022-10-16T06:23:18.608Z,9.711642
2022-10-16T06:24:18.608Z,9.711593
2022-10-16T06:25:18.590Z,9.711782
2022-10-16T06:26:18.595Z,9.711682
2022-10-16T06:27:18.577Z,9.711768
2022-10-16T06:28:19.275Z,9.711717
2022-10-16T06:29:18.574Z,9.711793
2022-10-16T06:30:18.553Z,9.711675
2022-10-16T06:31:18.545Z,9.711777
2022-10-16T06:32:18.535Z,9.711714
2022-10-16T06:33:18.532Z,9.712003
2022-10-16T06:34:18.528Z,9.711778
2022-10-16T06:35:18.520Z,9.711782
2022-10-16T06:36:18.526Z,9.711706
2022-10-16T06:37:18.509Z,9.711757
2022-10-16T06:38:18.488Z,9.711730
2022-10-16T06:39:18.480Z,9.711944
2022-10-16T06:40:18.480Z,9.711839
2022-10-16T06:41:18.470Z,9.711843
2022-10-16T06:42:18.638Z,9.712126
2022-10-16T06:43:18.445Z,9.712001
2022-10-16T06:44:18.435Z,9.711954
2022-10-16T06:45:19.456Z,9.711905
2022-10-16T06:46:18.431Z,9.711666
2022-10-16T06:47:18.413Z,9.711661
2022-10-16T06:48:19.328Z,9.711725
2022-10-16T06:49:18.399Z,9.711966
2022-10-16T06:50:19.278Z,9.711770
2022-10-16T06:51:18.380Z,9.711619
2022-10-16T06:52:18.371Z,9.711438
2022-10-16T06:53:18.378Z,9.711649
2022-10-16T06:54:18.363Z,9.711629
2022-10-16T06:55:18.353Z,9.711594
2022-10-16T06:56:18.346Z,9.711554
2022-10-16T06:57:18.337Z,9.711704
2022-10-16T06:58:18.323Z,9.711761
2022-10-16T06:59:18.310Z,9.711566
2022-10-16T07:00:18.366Z,9.711823
2022-10-16T07:01:18.328Z,9.711852
2022-10-16T07:02:18.299Z,9.711550
2022-10-16T07:03:18.281Z,9.711919
2022-10-16T07:04:18.292Z,9.711907
2022-10-16T07:05:18.273Z,9.711869
2022-10-16T07:06:18.263Z,9.711733
2022-10-16T07:07:18.261Z,9.711774
2022-10-16T07:08:18.241Z,9.711669
2022-10-16T07:09:18.313Z,9.711659
2022-10-16T07:10:18.226Z,9.711642
2022-10-16T07:11:18.215Z,9.711693
2022-10-16T07:12:18.212Z,9.711686
2022-10-16T07:13:18.199Z,9.711699
2022-10-16T07:14:18.196Z,9.711677
2022-10-16T07:15:18.181Z,9.711725
2022-10-16T07:16:18.185Z,9.711785
2022-10-16T07:17:18.179Z,9.711740
2022-10-16T07:18:18.163Z,9.711703
2022-10-16T07:19:18.152Z,9.711694
2022-10-16T07:20:19.758Z,9.711696
2022-10-16T07:21:18.842Z,9.711697
2022-10-16T07:22:18.144Z,9.711672
2022-10-16T07:23:18.112Z,9.711683
2022-10-16T07:24:18.120Z,9.711688
2022-10-16T07:25:18.098Z,9.711745
2022-10-16T07:26:18.086Z,9.711737
2022-10-16T07:27:18.094Z,9.711658
2022-10-16T07:28:18.084Z,9.711655
2022-10-16T07:29:18.843Z,9.711724
2022-10-16T07:30:18.060Z,9.711686
2022-10-16T07:31:18.059Z,9.711669
2022-10-16T07:32:18.054Z,9.711714
2022-10-16T07:33:18.044Z,9.711730
2022-10-16T07:34:18.035Z,9.711740
2022-10-16T07:35:18.022Z,9.711716
2022-10-16T07:36:18.771Z,9.711761
2022-10-16T07:37:18.012Z,9.711744
2022-10-16T07:38:18.003Z,9.711764
2022-10-16T07:39:17.993Z,9.711780
2022-10-16T07:40:17.984Z,9.711707
2022-10-16T07:41:17.983Z,9.711646
2022-10-16T07:42:17.983Z,9.711704
2022-10-16T07:43:17.978Z,9.711843
2022-10-16T07:44:17.954Z,9.711784
2022-10-16T07:45:17.942Z,9.711790
2022-10-16T07:46:17.930Z,9.711821
2022-10-16T07:47:17.921Z,9.711808
2022-10-16T07:48:18.929Z,9.711805
2022-10-16T07:49:17.909Z,9.711798
2022-10-16T07:50:17.902Z,9.711920
2022-10-16T07:51:17.899Z,9.711859
2022-10-16T07:52:17.893Z,9.711882
2022-10-16T07:53:20.542Z,9.711837
2022-10-16T07:54:17.876Z,9.711826
2022-10-16T07:55:17.879Z,9.711965
2022-10-16T07:56:17.869Z,9.711894
2022-10-16T07:57:17.862Z,9.711898
2022-10-16T07:58:17.872Z,9.711952
2022-10-16T07:59:17.842Z,9.711874
2022-10-16T08:00:17.823Z,9.711858
2022-10-16T08:01:17.881Z,9.711996
2022-10-16T08:02:18.811Z,9.711866
2022-10-16T08:03:17.794Z,9.712014
2022-10-16T08:04:17.795Z,9.711964
2022-10-16T08:05:17.788Z,9.711909
2022-10-16T08:06:19.707Z,9.711993
2022-10-16T08:07:17.782Z,9.712017
2022-10-16T08:08:17.756Z,9.711884
2022-10-16T08:09:17.761Z,9.712022
2022-10-16T08:10:17.741Z,9.712213
2022-10-16T08:11:17.737Z,9.712135
2022-10-16T08:12:17.717Z,9.712357
2022-10-16T08:13:18.727Z,9.712439
2022-10-16T08:14:17.717Z,9.712184
2022-10-16T08:15:17.716Z,9.712116
2022-10-16T08:16:17.708Z,9.712165
2022-10-16T08:17:18.426Z,9.712329
2022-10-16T08:18:17.677Z,9.712507
2022-10-16T08:19:17.699Z,9.712584
2022-10-16T08:20:17.681Z,9.712655
2022-10-16T08:21:21.440Z,9.712664
2022-10-16T08:22:17.648Z,9.712475
2022-10-16T08:23:17.636Z,9.712263
2022-10-16T08:24:17.639Z,9.712117
2022-10-16T08:25:17.631Z,9.712078
2022-10-16T08:26:17.612Z,9.712379
2022-10-16T08:27:17.614Z,9.712695
2022-10-16T08:28:17.604Z,9.712666
2022-10-16T08:29:17.594Z,9.712398
2022-10-16T08:30:17.578Z,9.711715
2022-10-16T08:31:18.362Z,9.711716
2022-10-16T08:32:17.574Z,9.711864
2022-10-16T08:33:17.569Z,9.711740
2022-10-16T08:34:17.564Z,9.711604
2022-10-16T08:35:17.549Z,9.711922
2022-10-16T08:36:18.288Z,9.711843
2022-10-16T08:37:17.541Z,9.711652
2022-10-16T08:38:17.533Z,9.711637
2022-10-16T08:39:17.515Z,9.711517
2022-10-16T08:40:17.566Z,9.711571
2022-10-16T08:41:17.506Z,9.711636
2022-10-16T08:42:17.672Z,9.711629
2022-10-16T08:43:17.484Z,9.711643
2022-10-16T08:44:17.477Z,9.711577
2022-10-16T08:45:17.478Z,9.711535
2022-10-16T08:46:17.464Z,9.711608
2022-10-16T08:47:17.450Z,9.711520
2022-10-16T08:48:18.454Z,9.711480
2022-10-16T08:49:18.368Z,9.711366
2022-10-16T08:50:17.450Z,9.711353
2022-10-16T08:51:17.423Z,9.711498
2022-10-16T08:52:17.433Z,9.711570
2022-10-16T08:53:17.414Z,9.711490
2022-10-16T08:54:17.406Z,9.711587
2022-10-16T08:55:17.393Z,9.711613
2022-10-16T08:56:17.388Z,9.711701
2022-10-16T08:57:21.280Z,9.711531
2022-10-16T08:58:19.380Z,9.711520
2022-10-16T08:59:17.358Z,9.711509
2022-10-16T09:00:17.377Z,9.711651
2022-10-16T09:01:17.452Z,9.711694
2022-10-16T09:02:17.339Z,9.711855
2022-10-16T09:03:17.330Z,9.711825
2022-10-16T09:04:17.316Z,9.711815
2022-10-16T09:05:17.315Z,9.711709
2022-10-16T09:06:17.299Z,9.711848
2022-10-16T09:07:18.304Z,9.711779
2022-10-16T09:08:17.306Z,9.711731
2022-10-16T09:09:17.274Z,9.711799
2022-10-16T09:10:17.270Z,9.711999
2022-10-16T09:11:17.278Z,9.711976
2022-10-16T09:12:17.264Z,9.711884
2022-10-16T09:13:17.251Z,9.711827
2022-10-16T09:14:17.236Z,9.711668
2022-10-16T09:15:17.244Z,9.711599
2022-10-16T09:16:17.235Z,9.711784
2022-10-16T09:17:17.219Z,9.711679
2022-10-16T09:18:17.220Z,9.711605
2022-10-16T09:19:17.200Z,9.711669
2022-10-16T09:20:17.200Z,9.711800
2022-10-16T09:21:17.186Z,9.711985
2022-10-16T09:22:17.187Z,9.712053
2022-10-16T09:23:17.186Z,9.712027
2022-10-16T09:24:17.153Z,9.712015
2022-10-16T09:25:17.159Z,9.711983
2022-10-16T09:26:17.872Z,9.711787
2022-10-16T09:27:17.132Z,9.711757
2022-10-16T09:28:17.125Z,9.711688
2022-10-16T09:29:17.109Z,9.711683
2022-10-16T09:30:17.124Z,9.711699
2022-10-16T09:31:17.110Z,9.711815
2022-10-16T09:32:17.091Z,9.711802
2022-10-16T09:33:17.143Z,9.711731
2022-10-16T09:34:17.074Z,9.711734
2022-10-16T09:35:17.087Z,9.711852
2022-10-16T09:36:17.057Z,9.711819
2022-10-16T09:37:17.054Z,9.711767
2022-10-16T09:38:17.050Z,9.711876
2022-10-16T09:39:17.057Z,9.711884
2022-10-16T09:40:17.031Z,9.712065
2022-10-16T09:41:17.012Z,9.712075
2022-10-16T09:42:18.018Z,9.712079
2022-10-16T09:43:17.010Z,9.712129
2022-10-16T09:44:17.006Z,9.712159
2022-10-16T09:45:17.011Z,9.712156
2022-10-16T09:46:17.035Z,9.712108
2022-10-16T09:47:16.977Z,9.712112
2022-10-16T09:48:16.975Z,9.711703
2022-10-16T09:49:16.981Z,9.711623
2022-10-16T09:50:18.038Z,9.711719
2022-10-16T09:51:16.947Z,9.711751
2022-10-16T09:52:16.950Z,9.711689
2022-10-16T09:53:16.947Z,9.711585
2022-10-16T09:54:16.933Z,9.711675
2022-10-16T09:55:16.934Z,9.711637
2022-10-16T09:56:16.921Z,9.711577
2022-10-16T09:57:16.913Z,9.711480
2022-10-16T09:58:16.911Z,9.711432
2022-10-16T09:59:17.816Z,9.711532
2022-10-16T10:00:16.939Z,9.711581
2022-10-16T10:01:16.869Z,9.711567
2022-10-16T10:02:16.865Z,9.711600
2022-10-16T10:03:16.867Z,9.711597
2022-10-16T10:04:16.866Z,9.711581
2022-10-16T10:05:16.848Z,9.711560
2022-10-16T10:06:16.830Z,9.711580
2022-10-16T10:07:16.824Z,9.711624
2022-10-16T10:08:16.913Z,9.711651
2022-10-16T10:09:16.820Z,9.711576
2022-10-16T10:10:16.822Z,9.711502
2022-10-16T10:11:16.798Z,9.711500
2022-10-16T10:12:16.801Z,9.711550
2022-10-16T10:13:16.788Z,9.711532
2022-10-16T10:14:16.776Z,9.711594
2022-10-16T10:15:16.799Z,9.711693
2022-10-16T10:16:16.756Z,9.711577
2022-10-16T10:17:16.749Z,9.711587
2022-10-16T10:18:17.281Z,9.711575
2022-10-16T10:19:17.321Z,9.711637
2022-10-16T10:20:16.747Z,9.711739
2022-10-16T10:21:16.720Z,9.711637
2022-10-16T10:22:16.705Z,9.711642
2022-10-16T10:23:16.701Z,9.711719
2022-10-16T10:24:16.708Z,9.711617
2022-10-16T10:25:16.712Z,9.711675
2022-10-16T10:26:16.682Z,9.711550
2022-10-16T10:27:16.666Z,9.711652
2022-10-16T10:28:16.665Z,9.711563
2022-10-16T10:29:16.645Z,9.711631
2022-10-16T10:31:16.636Z,9.711650
2022-10-16T10:32:16.623Z,9.711532
2022-10-16T10:33:16.619Z,9.711577
2022-10-16T10:34:16.610Z,9.711664
2022-10-16T10:35:16.614Z,9.711595
2022-10-16T10:36:16.598Z,9.711677
2022-10-16T10:37:16.584Z,9.711637
2022-10-16T10:38:16.579Z,9.711635
2022-10-16T10:39:16.631Z,9.711699
2022-10-16T10:40:16.556Z,9.711456
2022-10-16T10:41:16.546Z,9.711671
2022-10-16T10:42:16.750Z,9.711798
2022-10-16T10:43:16.532Z,9.711722
2022-10-16T10:44:16.536Z,9.711776
2022-10-16T10:45:16.513Z,9.711953
2022-10-16T10:46:16.551Z,9.711828
2022-10-16T10:47:16.505Z,9.711769
2022-10-16T10:48:16.575Z,9.711748
2022-10-16T10:49:16.481Z,9.711691
2022-10-16T10:50:16.472Z,9.711757
2022-10-16T10:51:16.473Z,9.711622
2022-10-16T10:52:16.472Z,9.711715
2022-10-16T10:53:16.458Z,9.711593
2022-10-16T10:54:16.453Z,9.711632
2022-10-16T10:55:16.453Z,9.711708
2022-10-16T10:56:16.427Z,9.711690
2022-10-16T10:57:16.415Z,9.711820
2022-10-16T10:58:17.415Z,9.711781
2022-10-16T10:59:16.411Z,9.711787
2022-10-16T11:00:16.403Z,9.711769
2022-10-16T11:01:16.410Z,9.711742
2022-10-16T11:02:16.449Z,9.711669
2022-10-16T11:03:16.917Z,9.711620
2022-10-16T11:04:16.379Z,9.711598
2022-10-16T11:05:16.364Z,9.711569
2022-10-16T11:06:16.345Z,9.711636
2022-10-16T11:07:16.345Z,9.711611
2022-10-16T11:08:16.849Z,9.711637
2022-10-16T11:12:24.273Z,9.711778
2022-10-16T11:13:24.253Z,9.711818
2022-10-16T11:14:24.264Z,9.711793
2022-10-16T11:15:24.239Z,9.711707
2022-10-16T11:16:24.237Z,9.711681
2022-10-16T11:17:24.514Z,9.711561
2022-10-16T11:18:24.219Z,9.711505
2022-10-16T11:19:24.222Z,9.711464
2022-10-16T11:20:24.214Z,9.711420
2022-10-16T11:21:28.719Z,9.711555
2022-10-16T11:22:26.191Z,9.711513
2022-10-16T11:23:24.169Z,9.711471
2022-10-16T11:24:24.198Z,9.711523
2022-10-16T11:25:24.158Z,9.711530
2022-10-16T11:26:24.148Z,9.711608
2022-10-16T11:27:25.284Z,9.711440
2022-10-16T11:28:27.816Z,9.711457
2022-10-16T11:29:26.120Z,9.711356
2022-10-16T11:30:24.115Z,9.711586
2022-10-16T11:31:24.106Z,9.711508
2022-10-16T11:32:24.116Z,9.711649
2022-10-16T11:33:24.111Z,9.711653
2022-10-16T11:34:24.084Z,9.711587
2022-10-16T11:35:24.075Z,9.711611
2022-10-16T11:36:24.106Z,9.711723
2022-10-16T11:37:24.306Z,9.711709
2022-10-16T11:38:24.080Z,9.711617
2022-10-16T11:39:24.050Z,9.711505
2022-10-16T11:40:24.040Z,9.711382
2022-10-16T11:41:24.030Z,9.711443
2022-10-16T11:42:24.030Z,9.711576
2022-10-16T11:43:24.033Z,9.711662
2022-10-16T11:44:23.997Z,9.711450
2022-10-16T11:45:24.035Z,9.711283
2022-10-16T11:46:24.004Z,9.711366
2022-10-16T11:47:46.396Z,9.711444
2022-10-16T11:48:26.545Z,9.711617
2022-10-16T11:49:23.965Z,9.711562
2022-10-16T11:50:23.968Z,9.711621
2022-10-16T11:51:23.948Z,9.711623
2022-10-16T11:52:23.947Z,9.711653
2022-10-16T11:53:23.956Z,9.711709
2022-10-16T11:54:23.991Z,9.711810
2022-10-16T11:55:24.144Z,9.711722
2022-10-16T11:56:23.901Z,9.711830
2022-10-16T11:57:24.213Z,9.711739
2022-10-16T11:58:23.916Z,9.711674
2022-10-16T11:59:23.885Z,9.711645
2022-10-16T12:00:23.875Z,9.711820
2022-10-16T12:02:24.002Z,9.711730
2022-10-16T12:03:23.921Z,9.711711
2022-10-16T12:04:23.850Z,9.711726
2022-10-16T12:05:23.834Z,9.711743
2022-10-16T12:06:23.822Z,9.711751
2022-10-16T12:07:23.818Z,9.711555
2022-10-16T12:08:23.825Z,9.711950
2022-10-16T12:09:23.797Z,9.711704
2022-10-16T12:10:26.696Z,9.711715
2022-10-16T12:11:24.809Z,9.711635